sensor_id;sensor_type;location;lat;lon;timestamp;pressure;altitude;pressure_sealevel;temperature;humidity
77092;BME280;66032;48.252;11.638;2023-04-25T00:01:22;95388.22;;;6.89;80.56
77092;BME280;66032;48.252;11.638;2023-04-25T00:03:50;95386.81;;;6.94;80.24
77092;BME280;66032;48.252;11.638;2023-04-25T00:06:18;95382.88;;;6.98;80.40
77092;BME280;66032;48.252;11.638;2023-04-25T00:08:45;95377.59;;;6.98;80.58
77092;BME280;66032;48.252;11.638;2023-04-25T00:11:13;95379.28;;;6.99;80.85
77092;BME280;66032;48.252;11.638;2023-04-25T00:13:40;95376.50;;;7.01;81.19
77092;BME280;66032;48.252;11.638;2023-04-25T00:16:08;95384.06;;;7.04;81.33
77092;BME280;66032;48.252;11.638;2023-04-25T00:18:36;95384.06;;;7.04;81.41
77092;BME280;66032;48.252;11.638;2023-04-25T00:21:04;95391.00;;;7.05;81.70
77092;BME280;66032;48.252;11.638;2023-04-25T00:23:33;95387.25;;;7.07;81.17
77092;BME280;66032;48.252;11.638;2023-04-25T00:26:02;95388.59;;;7.11;81.02
77092;BME280;66032;48.252;11.638;2023-04-25T00:28:30;95382.06;;;7.15;79.75
77092;BME280;66032;48.252;11.638;2023-04-25T00:30:58;95385.88;;;7.21;80.94
77092;BME280;66032;48.252;11.638;2023-04-25T00:33:25;95385.44;;;7.26;81.08
77092;BME280;66032;48.252;11.638;2023-04-25T00:35:52;95391.09;;;7.31;80.10
77092;BME280;66032;48.252;11.638;2023-04-25T00:38:20;95392.31;;;7.36;80.05
77092;BME280;66032;48.252;11.638;2023-04-25T00:40:48;95388.72;;;7.45;78.39
77092;BME280;66032;48.252;11.638;2023-04-25T00:43:15;95386.34;;;7.52;77.94
77092;BME280;66032;48.252;11.638;2023-04-25T00:45:43;95381.28;;;7.58;77.50
77092;BME280;66032;48.252;11.638;2023-04-25T00:48:10;95373.03;;;7.61;77.30
77092;BME280;66032;48.252;11.638;2023-04-25T00:50:38;95373.03;;;7.61;77.28
77092;BME280;66032;48.252;11.638;2023-04-25T00:53:06;95371.56;;;7.59;77.13
77092;BME280;66032;48.252;11.638;2023-04-25T00:55:33;95378.09;;;7.55;77.00
77092;BME280;66032;48.252;11.638;2023-04-25T00:58:03;95375.09;;;7.50;77.54
77092;BME280;66032;48.252;11.638;2023-04-25T01:00:30;95372.78;;;7.47;77.66
77092;BME280;66032;48.252;11.638;2023-04-25T01:02:58;95374.91;;;7.43;77.54
77092;BME280;66032;48.252;11.638;2023-04-25T01:05:26;95367.13;;;7.42;78.33
77092;BME280;66032;48.252;11.638;2023-04-25T01:07:53;95366.75;;;7.37;77.77
77092;BME280;66032;48.252;11.638;2023-04-25T01:10:21;95366.69;;;7.29;78.59
77092;BME280;66032;48.252;11.638;2023-04-25T01:12:49;95363.97;;;7.20;78.75
77092;BME280;66032;48.252;11.638;2023-04-25T01:15:16;95370.97;;;7.12;79.22
77092;BME280;66032;48.252;11.638;2023-04-25T01:17:44;95364.81;;;7.03;79.38
77092;BME280;66032;48.252;11.638;2023-04-25T01:20:11;95369.16;;;6.95;80.06
77092;BME280;66032;48.252;11.638;2023-04-25T01:22:42;95373.56;;;6.86;80.36
77092;BME280;66032;48.252;11.638;2023-04-25T01:25:10;95369.16;;;6.77;81.29
77092;BME280;66032;48.252;11.638;2023-04-25T01:27:39;95363.41;;;6.64;80.95
77092;BME280;66032;48.252;11.638;2023-04-25T01:30:07;95360.19;;;6.52;81.46
77092;BME280;66032;48.252;11.638;2023-04-25T01:32:35;95363.00;;;6.41;81.50
77092;BME280;66032;48.252;11.638;2023-04-25T01:35:10;95367.94;;;6.26;81.53
77092;BME280;66032;48.252;11.638;2023-04-25T01:37:46;95363.81;;;6.14;82.38
77092;BME280;66032;48.252;11.638;2023-04-25T01:40:14;95359.28;;;6.06;82.50
77092;BME280;66032;48.252;11.638;2023-04-25T01:42:43;95357.66;;;5.96;82.87
77092;BME280;66032;48.252;11.638;2023-04-25T01:45:11;95347.13;;;5.86;83.25
77092;BME280;66032;48.252;11.638;2023-04-25T01:47:39;95349.63;;;5.78;84.16
77092;BME280;66032;48.252;11.638;2023-04-25T01:50:10;95350.53;;;5.69;84.95
77092;BME280;66032;48.252;11.638;2023-04-25T01:52:38;95350.38;;;5.61;84.81
77092;BME280;66032;48.252;11.638;2023-04-25T01:55:07;95353.72;;;5.53;85.02
77092;BME280;66032;48.252;11.638;2023-04-25T01:57:37;95354.44;;;5.46;85.55
77092;BME280;66032;48.252;11.638;2023-04-25T02:00:06;95348.78;;;5.41;85.40
77092;BME280;66032;48.252;11.638;2023-04-25T02:02:39;95352.63;;;5.37;84.88
77092;BME280;66032;48.252;11.638;2023-04-25T02:05:20;95344.34;;;5.31;85.24
77092;BME280;66032;48.252;11.638;2023-04-25T02:07:48;95359.72;;;5.26;85.42
77092;BME280;66032;48.252;11.638;2023-04-25T02:10:15;95351.41;;;5.21;85.90
77092;BME280;66032;48.252;11.638;2023-04-25T02:13:03;95356.81;;;5.20;86.28
77092;BME280;66032;48.252;11.638;2023-04-25T02:15:41;95353.22;;;5.21;86.78
77092;BME280;66032;48.252;11.638;2023-04-25T02:18:14;95350.19;;;5.25;86.15
77092;BME280;66032;48.252;11.638;2023-04-25T02:20:44;95342.69;;;5.30;85.89
77092;BME280;66032;48.252;11.638;2023-04-25T02:23:11;95339.09;;;5.31;85.99
77092;BME280;66032;48.252;11.638;2023-04-25T02:25:38;95347.81;;;5.32;85.81
77092;BME280;66032;48.252;11.638;2023-04-25T02:28:06;95343.41;;;5.32;86.16
77092;BME280;66032;48.252;11.638;2023-04-25T02:30:35;95341.28;;;5.36;86.03
77092;BME280;66032;48.252;11.638;2023-04-25T02:33:04;95343.78;;;5.38;86.29
77092;BME280;66032;48.252;11.638;2023-04-25T02:35:32;95349.31;;;5.44;87.48
77092;BME280;66032;48.252;11.638;2023-04-25T02:37:59;95341.69;;;5.60;85.32
77092;BME280;66032;48.252;11.638;2023-04-25T02:40:26;95345.06;;;5.80;84.37
77092;BME280;66032;48.252;11.638;2023-04-25T02:42:54;95342.00;;;5.94;83.74
77092;BME280;66032;48.252;11.638;2023-04-25T02:45:21;95335.75;;;6.05;83.28
77092;BME280;66032;48.252;11.638;2023-04-25T02:47:49;95329.75;;;6.13;82.99
77092;BME280;66032;48.252;11.638;2023-04-25T02:50:18;95329.69;;;6.22;82.63
77092;BME280;66032;48.252;11.638;2023-04-25T02:52:45;95330.34;;;6.34;81.91
77092;BME280;66032;48.252;11.638;2023-04-25T02:55:17;95334.03;;;6.41;81.41
77092;BME280;66032;48.252;11.638;2023-04-25T02:57:45;95334.97;;;6.50;81.13
77092;BME280;66032;48.252;11.638;2023-04-25T03:00:21;95334.22;;;6.57;80.40
77092;BME280;66032;48.252;11.638;2023-04-25T03:02:50;95335.50;;;6.71;79.45
77092;BME280;66032;48.252;11.638;2023-04-25T03:05:18;95332.81;;;6.80;78.83
77092;BME280;66032;48.252;11.638;2023-04-25T03:07:46;95328.59;;;6.88;79.03
77092;BME280;66032;48.252;11.638;2023-04-25T03:10:15;95318.31;;;6.94;78.10
77092;BME280;66032;48.252;11.638;2023-04-25T03:12:42;95320.31;;;7.00;77.71
77092;BME280;66032;48.252;11.638;2023-04-25T03:15:10;95325.66;;;7.08;77.45
77092;BME280;66032;48.252;11.638;2023-04-25T03:17:37;95320.59;;;7.15;77.54
77092;BME280;66032;48.252;11.638;2023-04-25T03:20:05;95328.88;;;7.20;77.19
77092;BME280;66032;48.252;11.638;2023-04-25T03:22:36;95335.22;;;7.27;77.53
77092;BME280;66032;48.252;11.638;2023-04-25T03:25:04;95332.13;;;7.32;78.83
77092;BME280;66032;48.252;11.638;2023-04-25T03:27:31;95321.41;;;7.33;77.97
77092;BME280;66032;48.252;11.638;2023-04-25T03:29:59;95322.94;;;7.36;79.17
77092;BME280;66032;48.252;11.638;2023-04-25T03:32:27;95318.31;;;7.38;79.01
77092;BME280;66032;48.252;11.638;2023-04-25T03:34:55;95307.75;;;7.38;79.52
77092;BME280;66032;48.252;11.638;2023-04-25T03:37:25;95303.31;;;7.38;80.44
77092;BME280;66032;48.252;11.638;2023-04-25T03:39:53;95309.22;;;7.32;78.92
77092;BME280;66032;48.252;11.638;2023-04-25T03:42:22;95321.56;;;7.32;78.96
77092;BME280;66032;48.252;11.638;2023-04-25T03:44:53;95318.41;;;7.28;79.11
77092;BME280;66032;48.252;11.638;2023-04-25T03:47:20;95326.91;;;7.22;78.93
77092;BME280;66032;48.252;11.638;2023-04-25T03:49:49;95318.66;;;7.17;79.23
77092;BME280;66032;48.252;11.638;2023-04-25T03:52:21;95314.81;;;7.11;79.54
77092;BME280;66032;48.252;11.638;2023-04-25T03:54:48;95315.41;;;7.05;79.95
77092;BME280;66032;48.252;11.638;2023-04-25T03:57:18;95310.41;;;6.94;79.58
77092;BME280;66032;48.252;11.638;2023-04-25T03:59:46;95314.16;;;6.92;79.87
77092;BME280;66032;48.252;11.638;2023-04-25T04:02:15;95312.63;;;6.89;79.84
77092;BME280;66032;48.252;11.638;2023-04-25T04:04:42;95315.97;;;6.91;79.43
77092;BME280;66032;48.252;11.638;2023-04-25T04:07:12;95323.56;;;6.94;79.76
77092;BME280;66032;48.252;11.638;2023-04-25T04:09:42;95319.28;;;6.93;79.61
77092;BME280;66032;48.252;11.638;2023-04-25T04:12:17;95318.31;;;6.94;79.16
77092;BME280;66032;48.252;11.638;2023-04-25T04:14:44;95318.81;;;6.98;79.45
77092;BME280;66032;48.252;11.638;2023-04-25T04:17:12;95312.09;;;7.03;79.55
77092;BME280;66032;48.252;11.638;2023-04-25T04:19:39;95320.41;;;7.08;79.43
77092;BME280;66032;48.252;11.638;2023-04-25T04:22:10;95322.28;;;7.16;78.63
77092;BME280;66032;48.252;11.638;2023-04-25T04:24:39;95315.56;;;7.21;77.66
77092;BME280;66032;48.252;11.638;2023-04-25T04:27:09;95312.00;;;7.31;79.12
77092;BME280;66032;48.252;11.638;2023-04-25T04:29:47;95319.63;;;7.34;78.91
77092;BME280;66032;48.252;11.638;2023-04-25T04:32:23;95318.63;;;7.35;79.09
77092;BME280;66032;48.252;11.638;2023-04-25T04:34:52;95312.84;;;7.31;76.62
77092;BME280;66032;48.252;11.638;2023-04-25T04:37:23;95320.94;;;7.38;77.86
77092;BME280;66032;48.252;11.638;2023-04-25T04:39:51;95317.03;;;7.42;76.55
77092;BME280;66032;48.252;11.638;2023-04-25T04:42:37;95316.94;;;7.51;75.52
77092;BME280;66032;48.252;11.638;2023-04-25T04:45:14;95317.16;;;7.58;75.16
77092;BME280;66032;48.252;11.638;2023-04-25T04:48:01;95327.44;;;7.69;75.71
77092;BME280;66032;48.252;11.638;2023-04-25T04:51:02;95323.06;;;7.78;75.06
77092;BME280;66032;48.252;11.638;2023-04-25T04:53:47;95329.81;;;7.80;75.24
77092;BME280;66032;48.252;11.638;2023-04-25T04:56:31;95332.66;;;7.87;75.80
77092;BME280;66032;48.252;11.638;2023-04-25T04:59:25;95328.72;;;7.91;74.75
77092;BME280;66032;48.252;11.638;2023-04-25T05:02:12;95322.78;;;7.89;74.21
77092;BME280;66032;48.252;11.638;2023-04-25T05:05:12;95314.56;;;7.92;73.75
77092;BME280;66032;48.252;11.638;2023-04-25T05:07:57;95326.75;;;7.93;74.10
77092;BME280;66032;48.252;11.638;2023-04-25T05:10:48;95323.34;;;8.00;74.72
77092;BME280;66032;48.252;11.638;2023-04-25T05:13:54;95312.66;;;8.10;74.77
77092;BME280;66032;48.252;11.638;2023-04-25T05:16:56;95303.44;;;8.14;74.74
77092;BME280;66032;48.252;11.638;2023-04-25T05:19:39;95307.09;;;8.21;74.86
77092;BME280;66032;48.252;11.638;2023-04-25T05:22:29;95308.28;;;8.27;74.21
77092;BME280;66032;48.252;11.638;2023-04-25T05:25:16;95312.81;;;8.34;74.84
77092;BME280;66032;48.252;11.638;2023-04-25T05:27:50;95315.78;;;8.40;75.02
77092;BME280;66032;48.252;11.638;2023-04-25T05:30:44;95305.72;;;8.43;74.05
77092;BME280;66032;48.252;11.638;2023-04-25T05:33:18;95306.91;;;8.49;75.67
77092;BME280;66032;48.252;11.638;2023-04-25T05:35:49;95316.50;;;8.58;74.78
77092;BME280;66032;48.252;11.638;2023-04-25T05:38:16;95318.66;;;8.62;73.74
77092;BME280;66032;48.252;11.638;2023-04-25T05:41:02;95324.97;;;8.69;74.82
77092;BME280;66032;48.252;11.638;2023-04-25T05:43:52;95320.16;;;8.73;74.54
77092;BME280;66032;48.252;11.638;2023-04-25T05:46:45;95317.38;;;8.74;73.96
77092;BME280;66032;48.252;11.638;2023-04-25T05:49:50;95307.47;;;8.77;73.79
77092;BME280;66032;48.252;11.638;2023-04-25T05:52:38;95322.97;;;8.71;73.51
77092;BME280;66032;48.252;11.638;2023-04-25T05:55:44;95319.72;;;8.86;73.35
77092;BME280;66032;48.252;11.638;2023-04-25T05:58:19;95322.00;;;8.89;73.90
77092;BME280;66032;48.252;11.638;2023-04-25T06:00:47;95326.66;;;8.95;73.17
77092;BME280;66032;48.252;11.638;2023-04-25T06:03:15;95326.69;;;9.03;73.12
77092;BME280;66032;48.252;11.638;2023-04-25T06:05:46;95324.88;;;9.03;73.35
77092;BME280;66032;48.252;11.638;2023-04-25T06:08:14;95324.88;;;9.03;74.09
77092;BME280;66032;48.252;11.638;2023-04-25T06:10:42;95323.53;;;8.99;72.03
77092;BME280;66032;48.252;11.638;2023-04-25T06:13:09;95326.00;;;8.93;73.25
77092;BME280;66032;48.252;11.638;2023-04-25T06:15:37;95327.44;;;8.87;73.75
77092;BME280;66032;48.252;11.638;2023-04-25T06:18:04;95336.19;;;8.71;75.56
77092;BME280;66032;48.252;11.638;2023-04-25T06:20:33;95342.09;;;8.65;78.30
77092;BME280;66032;48.252;11.638;2023-04-25T06:23:00;95336.47;;;8.52;79.19
77092;BME280;66032;48.252;11.638;2023-04-25T06:25:51;95322.69;;;8.32;79.31
77092;BME280;66032;48.252;11.638;2023-04-25T06:28:18;95328.34;;;8.12;79.50
77092;BME280;66032;48.252;11.638;2023-04-25T06:30:46;95320.44;;;8.12;79.14
77092;BME280;66032;48.252;11.638;2023-04-25T06:33:17;95328.88;;;8.23;80.49
77092;BME280;66032;48.252;11.638;2023-04-25T06:35:45;95330.47;;;8.34;80.51
77092;BME280;66032;48.252;11.638;2023-04-25T06:38:15;95323.22;;;8.44;79.57
77092;BME280;66032;48.252;11.638;2023-04-25T06:40:47;95334.16;;;8.57;79.63
77092;BME280;66032;48.252;11.638;2023-04-25T06:43:15;95329.41;;;8.69;80.36
77092;BME280;66032;48.252;11.638;2023-04-25T06:46:03;95333.09;;;8.84;79.77
77092;BME280;66032;48.252;11.638;2023-04-25T06:48:32;95330.47;;;9.00;79.16
77092;BME280;66032;48.252;11.638;2023-04-25T06:51:00;95337.59;;;9.16;79.54
77092;BME280;66032;48.252;11.638;2023-04-25T06:53:27;95336.28;;;9.28;77.98
77092;BME280;66032;48.252;11.638;2023-04-25T06:55:59;95331.47;;;9.40;76.95
77092;BME280;66032;48.252;11.638;2023-04-25T06:58:40;95334.94;;;9.73;78.47
77092;BME280;66032;48.252;11.638;2023-04-25T07:01:24;95332.47;;;10.43;77.43
77092;BME280;66032;48.252;11.638;2023-04-25T07:03:52;95333.28;;;11.05;73.21
77092;BME280;66032;48.252;11.638;2023-04-25T07:06:19;95339.66;;;11.64;72.03
77092;BME280;66032;48.252;11.638;2023-04-25T07:08:47;95338.00;;;11.86;71.85
77092;BME280;66032;48.252;11.638;2023-04-25T07:11:16;95328.88;;;12.18;70.37
77092;BME280;66032;48.252;11.638;2023-04-25T07:13:44;95332.72;;;12.30;68.35
77092;BME280;66032;48.252;11.638;2023-04-25T07:16:11;95332.84;;;12.37;69.59
77092;BME280;66032;48.252;11.638;2023-04-25T07:18:39;95324.38;;;12.33;67.09
77092;BME280;66032;48.252;11.638;2023-04-25T07:21:08;95323.13;;;12.29;66.55
77092;BME280;66032;48.252;11.638;2023-04-25T07:23:36;95324.50;;;12.10;66.46
77092;BME280;66032;48.252;11.638;2023-04-25T07:26:09;95318.78;;;12.13;67.95
77092;BME280;66032;48.252;11.638;2023-04-25T07:28:45;95322.19;;;12.22;67.23
77092;BME280;66032;48.252;11.638;2023-04-25T07:31:17;95311.19;;;12.40;68.18
77092;BME280;66032;48.252;11.638;2023-04-25T07:33:45;95312.47;;;12.59;67.82
77092;BME280;66032;48.252;11.638;2023-04-25T07:36:13;95314.47;;;12.57;65.12
77092;BME280;66032;48.252;11.638;2023-04-25T07:38:44;95306.69;;;12.55;65.74
77092;BME280;66032;48.252;11.638;2023-04-25T07:41:11;95303.19;;;12.69;64.36
77092;BME280;66032;48.252;11.638;2023-04-25T07:43:39;95305.75;;;12.77;63.45
77092;BME280;66032;48.252;11.638;2023-04-25T07:46:06;95308.31;;;13.21;62.57
77092;BME280;66032;48.252;11.638;2023-04-25T07:48:34;95298.09;;;13.95;62.23
77092;BME280;66032;48.252;11.638;2023-04-25T07:51:02;95301.69;;;14.91;61.50
77092;BME280;66032;48.252;11.638;2023-04-25T07:53:33;95296.13;;;16.06;57.24
77092;BME280;66032;48.252;11.638;2023-04-25T07:56:07;95298.13;;;17.01;53.92
77092;BME280;66032;48.252;11.638;2023-04-25T07:58:37;95288.13;;;18.52;50.92
77092;BME280;66032;48.252;11.638;2023-04-25T08:01:07;95298.00;;;19.73;49.14
77092;BME280;66032;48.252;11.638;2023-04-25T08:03:35;95286.09;;;20.97;45.35
77092;BME280;66032;48.252;11.638;2023-04-25T08:06:07;95290.97;;;22.30;43.57
77092;BME280;66032;48.252;11.638;2023-04-25T08:08:45;95290.91;;;23.02;40.19
77092;BME280;66032;48.252;11.638;2023-04-25T08:11:16;95291.31;;;24.13;37.52
77092;BME280;66032;48.252;11.638;2023-04-25T08:13:44;95285.06;;;25.34;34.99
77092;BME280;66032;48.252;11.638;2023-04-25T08:16:12;95283.88;;;26.02;32.92
77092;BME280;66032;48.252;11.638;2023-04-25T08:18:40;95285.75;;;26.93;33.04
77092;BME280;66032;48.252;11.638;2023-04-25T08:21:08;95288.47;;;28.12;31.68
77092;BME280;66032;48.252;11.638;2023-04-25T08:23:38;95280.88;;;28.72;30.88
77092;BME280;66032;48.252;11.638;2023-04-25T08:26:14;95290.13;;;29.28;29.18
77092;BME280;66032;48.252;11.638;2023-04-25T08:28:42;95287.34;;;29.10;27.95
77092;BME280;66032;48.252;11.638;2023-04-25T08:31:10;95281.84;;;27.79;28.55
77092;BME280;66032;48.252;11.638;2023-04-25T08:33:47;95280.63;;;26.11;31.42
77092;BME280;66032;48.252;11.638;2023-04-25T08:36:21;95282.91;;;25.41;32.37
77092;BME280;66032;48.252;11.638;2023-04-25T08:39:15;95284.72;;;24.31;33.83
77092;BME280;66032;48.252;11.638;2023-04-25T08:42:06;95290.91;;;23.46;35.05
77092;BME280;66032;48.252;11.638;2023-04-25T08:44:37;95301.44;;;22.10;37.14
77092;BME280;66032;48.252;11.638;2023-04-25T08:47:05;95307.72;;;21.54;36.38
77092;BME280;66032;48.252;11.638;2023-04-25T08:49:45;95316.22;;;20.71;39.05
77092;BME280;66032;48.252;11.638;2023-04-25T08:52:14;95310.56;;;20.02;38.81
77092;BME280;66032;48.252;11.638;2023-04-25T08:54:43;95302.25;;;20.04;40.15
77092;BME280;66032;48.252;11.638;2023-04-25T08:57:18;95303.09;;;20.28;39.37
77092;BME280;66032;48.252;11.638;2023-04-25T08:59:48;95293.19;;;20.63;39.52
77092;BME280;66032;48.252;11.638;2023-04-25T09:02:16;95292.22;;;21.33;37.62
77092;BME280;66032;48.252;11.638;2023-04-25T09:04:49;95288.03;;;22.70;38.48
77092;BME280;66032;48.252;11.638;2023-04-25T09:07:16;95295.94;;;23.86;32.96
77092;BME280;66032;48.252;11.638;2023-04-25T09:09:49;95284.41;;;25.07;33.48
77092;BME280;66032;48.252;11.638;2023-04-25T09:12:19;95288.69;;;25.70;32.01
77092;BME280;66032;48.252;11.638;2023-04-25T09:15:07;95290.91;;;26.79;28.77
77092;BME280;66032;48.252;11.638;2023-04-25T09:17:58;95291.41;;;27.76;28.47
77092;BME280;66032;48.252;11.638;2023-04-25T09:20:41;95288.84;;;27.95;27.12
77092;BME280;66032;48.252;11.638;2023-04-25T09:23:14;95287.91;;;27.01;27.68
77092;BME280;66032;48.252;11.638;2023-04-25T09:25:42;95290.78;;;27.30;27.21
77092;BME280;66032;48.252;11.638;2023-04-25T09:28:10;95291.97;;;27.04;28.26
77092;BME280;66032;48.252;11.638;2023-04-25T09:30:39;95294.84;;;27.43;28.19
77092;BME280;66032;48.252;11.638;2023-04-25T09:33:19;95290.94;;;26.69;27.80
77092;BME280;66032;48.252;11.638;2023-04-25T09:35:49;95298.56;;;26.67;28.39
77092;BME280;66032;48.252;11.638;2023-04-25T09:38:44;95293.09;;;26.22;29.17
77092;BME280;66032;48.252;11.638;2023-04-25T09:41:24;95297.41;;;25.72;28.57
77092;BME280;66032;48.252;11.638;2023-04-25T09:43:56;95299.81;;;25.63;29.18
77092;BME280;66032;48.252;11.638;2023-04-25T09:46:34;95296.34;;;25.83;29.61
77092;BME280;66032;48.252;11.638;2023-04-25T09:49:07;95295.50;;;25.78;29.00
77092;BME280;66032;48.252;11.638;2023-04-25T09:51:56;95298.03;;;26.50;29.18
77092;BME280;66032;48.252;11.638;2023-04-25T09:54:28;95290.94;;;26.64;28.02
77092;BME280;66032;48.252;11.638;2023-04-25T09:57:10;95283.22;;;27.12;27.61
77092;BME280;66032;48.252;11.638;2023-04-25T09:59:43;95285.13;;;27.16;27.26
77092;BME280;66032;48.252;11.638;2023-04-25T10:02:11;95278.88;;;27.75;26.99
77092;BME280;66032;48.252;11.638;2023-04-25T10:04:40;95289.31;;;26.53;27.39
77092;BME280;66032;48.252;11.638;2023-04-25T10:07:31;95298.50;;;26.88;28.28
77092;BME280;66032;48.252;11.638;2023-04-25T10:10:03;95292.88;;;26.43;29.16
77092;BME280;66032;48.252;11.638;2023-04-25T10:12:32;95287.97;;;25.17;28.66
77092;BME280;66032;48.252;11.638;2023-04-25T10:15:01;95291.00;;;24.79;30.46
77092;BME280;66032;48.252;11.638;2023-04-25T10:17:31;95301.81;;;24.37;30.94
77092;BME280;66032;48.252;11.638;2023-04-25T10:20:01;95300.25;;;24.46;31.69
77092;BME280;66032;48.252;11.638;2023-04-25T10:22:38;95293.19;;;24.08;31.92
77092;BME280;66032;48.252;11.638;2023-04-25T10:25:07;95293.06;;;23.98;31.97
77092;BME280;66032;48.252;11.638;2023-04-25T10:27:35;95293.41;;;24.01;31.59
77092;BME280;66032;48.252;11.638;2023-04-25T10:30:07;95293.09;;;24.30;30.76
77092;BME280;66032;48.252;11.638;2023-04-25T10:35:15;95285.16;;;24.55;31.50
77092;BME280;66032;48.252;11.638;2023-04-25T10:38:11;95289.09;;;24.37;31.13
77092;BME280;66032;48.252;11.638;2023-04-25T10:40:40;95289.56;;;23.97;31.81
77092;BME280;66032;48.252;11.638;2023-04-25T10:43:34;95286.03;;;23.43;32.18
77092;BME280;66032;48.252;11.638;2023-04-25T10:46:30;95301.84;;;22.36;33.34
77092;BME280;66032;48.252;11.638;2023-04-25T10:49:02;95304.78;;;21.15;36.41
77092;BME280;66032;48.252;11.638;2023-04-25T10:51:34;95322.47;;;19.83;44.83
77092;BME280;66032;48.252;11.638;2023-04-25T10:54:06;95332.75;;;19.08;43.76
77092;BME280;66032;48.252;11.638;2023-04-25T10:56:38;95329.09;;;17.98;46.30
77092;BME280;66032;48.252;11.638;2023-04-25T10:59:16;95335.00;;;17.44;49.35
77092;BME280;66032;48.252;11.638;2023-04-25T11:01:49;95337.28;;;17.02;46.89
77092;BME280;66032;48.252;11.638;2023-04-25T11:04:32;95349.13;;;16.42;46.30
77092;BME280;66032;48.252;11.638;2023-04-25T11:09:40;95361.09;;;15.87;49.65
77092;BME280;66032;48.252;11.638;2023-04-25T11:12:09;95366.41;;;15.61;50.16
77092;BME280;66032;48.252;11.638;2023-04-25T11:14:39;95363.06;;;15.45;51.14
77092;BME280;66032;48.252;11.638;2023-04-25T11:17:26;95372.84;;;15.18;52.15
77092;BME280;66032;48.252;11.638;2023-04-25T11:19:54;95397.69;;;15.12;51.85
77092;BME280;66032;48.252;11.638;2023-04-25T11:22:23;95404.66;;;14.72;53.36
77092;BME280;66032;48.252;11.638;2023-04-25T11:24:50;95403.47;;;14.26;52.85
77092;BME280;66032;48.252;11.638;2023-04-25T11:27:18;95405.31;;;13.97;54.13
77092;BME280;66032;48.252;11.638;2023-04-25T11:29:46;95406.31;;;13.75;54.90
77092;BME280;66032;48.252;11.638;2023-04-25T11:32:17;95403.91;;;13.59;57.39
77092;BME280;66032;48.252;11.638;2023-04-25T11:34:47;95417.47;;;13.43;57.65
77092;BME280;66032;48.252;11.638;2023-04-25T11:37:14;95412.84;;;13.15;58.58
77092;BME280;66032;48.252;11.638;2023-04-25T11:39:43;95410.28;;;12.92;60.08
77092;BME280;66032;48.252;11.638;2023-04-25T11:42:12;95417.34;;;12.85;62.12
77092;BME280;66032;48.252;11.638;2023-04-25T11:44:40;95417.16;;;12.72;63.56
77092;BME280;66032;48.252;11.638;2023-04-25T11:47:07;95408.44;;;12.49;64.58
77092;BME280;66032;48.252;11.638;2023-04-25T11:49:35;95413.75;;;12.34;63.67
77092;BME280;66032;48.252;11.638;2023-04-25T11:52:02;95414.75;;;12.33;63.56
77092;BME280;66032;48.252;11.638;2023-04-25T11:54:30;95419.16;;;12.55;62.15
77092;BME280;66032;48.252;11.638;2023-04-25T11:56:57;95424.03;;;12.81;63.16
77092;BME280;66032;48.252;11.638;2023-04-25T11:59:25;95424.19;;;13.24;61.25
77092;BME280;66032;48.252;11.638;2023-04-25T12:01:53;95416.34;;;13.73;59.05
77092;BME280;66032;48.252;11.638;2023-04-25T12:04:22;95428.00;;;14.15;58.81
77092;BME280;66032;48.252;11.638;2023-04-25T12:06:52;95418.44;;;14.48;58.02
77092;BME280;66032;48.252;11.638;2023-04-25T12:09:27;95426.72;;;14.88;56.72
77092;BME280;66032;48.252;11.638;2023-04-25T12:11:57;95426.69;;;15.29;55.10
77092;BME280;66032;48.252;11.638;2023-04-25T12:14:30;95433.41;;;15.59;54.55
77092;BME280;66032;48.252;11.638;2023-04-25T12:17:01;95437.41;;;15.96;51.77
77092;BME280;66032;48.252;11.638;2023-04-25T12:19:37;95448.28;;;15.34;52.64
77092;BME280;66032;48.252;11.638;2023-04-25T12:22:21;95444.84;;;14.64;55.26
77092;BME280;66032;48.252;11.638;2023-04-25T12:24:49;95448.88;;;14.11;57.11
77092;BME280;66032;48.252;11.638;2023-04-25T12:27:20;95452.75;;;14.09;56.69
77092;BME280;66032;48.252;11.638;2023-04-25T12:29:55;95459.59;;;13.75;60.82
77092;BME280;66032;48.252;11.638;2023-04-25T12:32:23;95456.16;;;13.60;60.60
77092;BME280;66032;48.252;11.638;2023-04-25T12:34:51;95459.72;;;13.02;61.38
77092;BME280;66032;48.252;11.638;2023-04-25T12:37:19;95461.84;;;12.91;62.16
77092;BME280;66032;48.252;11.638;2023-04-25T12:39:46;95468.31;;;12.45;64.45
77092;BME280;66032;48.252;11.638;2023-04-25T12:42:13;95464.38;;;12.55;63.94
77092;BME280;66032;48.252;11.638;2023-04-25T12:44:41;95466.84;;;12.57;64.79
77092;BME280;66032;48.252;11.638;2023-04-25T12:47:09;95469.06;;;12.53;63.65
77092;BME280;66032;48.252;11.638;2023-04-25T12:49:36;95474.00;;;12.57;63.92
77092;BME280;66032;48.252;11.638;2023-04-25T12:52:04;95472.25;;;12.64;63.54
77092;BME280;66032;48.252;11.638;2023-04-25T12:54:31;95481.22;;;12.48;64.10
77092;BME280;66032;48.252;11.638;2023-04-25T12:56:58;95491.94;;;12.40;64.27
77092;BME280;66032;48.252;11.638;2023-04-25T12:59:26;95493.22;;;12.29;64.98
77092;BME280;66032;48.252;11.638;2023-04-25T13:01:53;95494.75;;;12.01;66.40
77092;BME280;66032;48.252;11.638;2023-04-25T13:04:21;95497.53;;;11.85;66.43
77092;BME280;66032;48.252;11.638;2023-04-25T13:06:48;95496.78;;;11.68;67.50
77092;BME280;66032;48.252;11.638;2023-04-25T13:09:15;95495.75;;;11.46;69.00
77092;BME280;66032;48.252;11.638;2023-04-25T13:11:43;95499.66;;;11.27;68.58
77092;BME280;66032;48.252;11.638;2023-04-25T13:14:10;95506.03;;;11.10;68.22
77092;BME280;66032;48.252;11.638;2023-04-25T13:16:38;95508.22;;;10.98;71.79
77092;BME280;66032;48.252;11.638;2023-04-25T13:19:05;95505.44;;;10.84;70.48
77092;BME280;66032;48.252;11.638;2023-04-25T13:21:34;95511.56;;;10.84;69.85
77092;BME280;66032;48.252;11.638;2023-04-25T13:24:02;95512.72;;;10.82;69.48
77092;BME280;66032;48.252;11.638;2023-04-25T13:26:29;95509.44;;;10.88;69.90